.
WxDataArchive / Data Records for 2011-11-07
2011-11-06 November 2011 2011-11-08

Data Records for Monday, 07 November 2011

Time	Temp	Chill	HIndex	Humid	Dewpt	 Wind 	HiWind	WindDir	Rain 	Barom 
-----	----	-----	------	-----	-----	------	------	-------	-----	----- 
00:00	56.7	56.7	56.7	55	40.7	1	3	248	0.00	30.168 
00:05	56.7	56.7	56.7	55	40.7	1	4	248	0.00	30.168 
00:10	56.7	56.7	56.7	55	40.7	1	5	248	0.00	30.168 
00:15	56.7	56.7	56.7	55	40.7	1	4	248	0.00	30.167 
00:20	56.7	56.7	56.7	54	40.2	1	4	270	0.00	30.167 
00:25	56.7	56.7	56.7	54	40.2	1	4	225	0.00	30.167 
00:30	56.7	56.7	56.7	54	40.2	1	3	225	0.00	30.171 
00:35	56.9	56.9	56.9	54	40.4	2	6	248	0.00	30.171 
00:40	56.9	56.9	56.9	54	40.4	1	4	225	0.00	30.171 
00:45	56.9	56.9	56.9	54	40.4	1	4	225	0.00	30.176 
00:50	56.9	56.9	56.9	54	40.4	1	4	248	0.00	30.176 
00:55	56.9	56.9	56.9	54	40.4	1	3	248	0.00	30.176 
01:00	56.9	56.9	56.9	54	40.4	1	7	248	0.00	30.180 
01:05	56.9	56.9	56.9	54	40.4	1	4	248	0.00	30.180 
01:10	56.9	56.9	56.9	54	40.4	1	3	248	0.00	30.180 
01:15	56.9	56.9	56.9	54	40.4	1	4	292	0.00	30.180 
01:20	56.9	56.9	56.9	54	40.4	1	3	248	0.00	30.180 
01:25	56.9	56.9	56.9	54	40.4	1	4	248	0.00	30.180 
01:30	56.9	56.9	56.9	54	40.4	1	4	248	0.00	30.180 
01:35	56.9	56.9	56.9	54	40.4	1	4	248	0.00	30.180 
01:40	56.9	56.9	56.9	54	40.4	1	3	248	0.00	30.180 
01:45	56.7	56.7	56.7	54	40.2	1	4	248	0.00	30.183 
01:50	56.7	56.7	56.7	55	40.7	1	3	248	0.00	30.183 
01:55	56.7	56.7	56.7	55	40.7	1	3	270	0.00	30.183 
02:00	56.7	56.7	56.7	55	40.7	1	3	248	0.00	30.181 
02:05	56.7	56.7	56.7	55	40.7	1	3	248	0.00	30.181 
02:10	56.6	56.6	56.6	55	40.6	1	4	248	0.00	30.181 
02:15	56.6	56.6	56.6	56	41.1	0	3	248	0.00	30.186 
02:20	56.6	56.6	56.6	55	40.6	0	3	248	0.00	30.186 
02:25	56.6	56.6	56.6	55	40.6	0	2	270	0.00	30.186 
02:30	56.6	56.6	56.6	56	41.1	0	3	270	0.00	30.183 
02:35	56.6	56.6	56.6	55	40.6	1	4	225	0.00	30.183 
02:40	56.6	56.6	56.6	56	41.1	0	2	225	0.00	30.183 
02:45	56.6	56.6	56.6	55	40.6	0	3	225	0.00	30.188 
02:50	56.5	56.5	56.5	56	41.0	0	3	225	0.00	30.188 
02:55	56.5	56.5	56.5	56	41.0	1	3	225	0.00	30.188 
03:00	56.5	56.5	56.5	56	41.0	0	2	225	0.00	30.186 
03:05	56.5	56.5	56.5	56	41.0	0	3	270	0.00	30.186 
03:10	56.5	56.5	56.5	56	41.0	1	4	270	0.00	30.186 
03:15	56.5	56.5	56.5	56	41.0	1	4	248	0.00	30.183 
03:20	56.5	56.5	56.5	56	41.0	0	2	248	0.00	30.183 
03:25	56.3	56.3	56.3	56	40.8	0	2	248	0.00	30.183 
03:30	56.3	56.3	56.3	56	40.8	0	2	270	0.00	30.183 
03:35	56.3	56.3	56.3	56	40.8	0	4	248	0.00	30.183 
03:40	56.3	56.3	56.3	56	40.8	0	2	248	0.00	30.183 
03:45	56.3	56.3	56.3	57	41.3	0	3	248	0.00	30.180 
03:50	56.3	56.3	56.3	57	41.3	0	4	248	0.00	30.180 
03:55	56.3	56.3	56.3	57	41.3	1	4	248	0.00	30.180 
04:00	56.3	56.3	56.3	57	41.3	0	2	248	0.00	30.183 
04:05	56.3	56.3	56.3	57	41.3	1	3	248	0.00	30.183 
04:10	56.3	56.3	56.3	57	41.3	1	3	248	0.00	30.183 
04:15	56.3	56.3	56.3	57	41.3	0	2	248	0.00	30.187 
04:20	56.3	56.3	56.3	57	41.3	1	4	248	0.00	30.187 
04:25	56.3	56.3	56.3	57	41.3	0	3	248	0.00	30.187 
04:30	56.3	56.3	56.3	57	41.3	1	6	248	0.00	30.194 
04:35	56.5	56.5	56.5	57	41.5	1	4	248	0.00	30.194 
04:40	56.5	56.5	56.5	57	41.5	1	3	248	0.00	30.194 
04:45	56.5	56.5	56.5	58	41.9	1	4	248	0.00	30.193 
04:50	56.5	56.5	56.5	58	41.9	0	2	248	0.00	30.193 
04:55	56.3	56.3	56.3	58	41.7	1	6	248	0.00	30.193 
05:00	56.3	56.3	56.3	58	41.7	1	4	270	0.00	30.189 
05:05	56.3	56.3	56.3	58	41.7	1	3	270	0.00	30.189 
05:10	56.2	56.2	56.2	58	41.6	0	2	248	0.00	30.189 
05:15	56.2	56.2	56.2	59	42.1	0	4	248	0.00	30.201 
05:20	56.2	56.2	56.2	59	42.1	0	2	248	0.00	30.201 
05:25	56.0	56.0	56.0	59	41.9	0	3	248	0.00	30.201 
05:30	56.0	56.0	56.0	60	42.3	1	3	248	0.00	30.204 
05:35	56.0	56.0	56.0	60	42.3	1	4	270	0.00	30.204 
05:40	56.0	56.0	56.0	61	42.7	0	1	248	0.00	30.204 
05:45	56.0	56.0	56.0	61	42.7	0	2	248	0.00	30.205 
05:50	55.9	55.9	55.9	61	42.6	1	4	248	0.00	30.205 
05:55	55.9	55.9	55.9	61	42.6	1	3	270	0.00	30.205 
06:00	55.7	55.7	55.7	62	42.9	0	4	248	0.00	30.211 
06:05	55.7	55.7	55.7	62	42.9	1	5	248	0.00	30.211 
06:10	55.7	55.7	55.7	62	42.9	0	2	248	0.00	30.211 
06:15	55.6	55.6	55.6	62	42.8	1	4	248	0.00	30.213 
06:20	55.4	55.4	55.4	65	43.8	1	5	225	0.00	30.213 
06:25	55.1	55.1	55.1	69	45.1	1	3	270	0.00	30.213 
06:30	54.5	54.5	54.5	73	46.0	2	5	248	0.00	30.218 
06:35	54.1	54.1	54.1	75	46.4	1	4	270	0.01	30.218 
06:40	53.6	53.6	53.6	77	46.6	1	5	248	0.00	30.218 
06:45	53.3	53.3	53.3	78	46.6	1	3	248	0.00	30.227 
06:50	53.1	53.1	53.1	78	46.4	1	3	248	0.00	30.227 
06:55	53.1	53.1	53.1	79	46.8	1	4	248	0.00	30.227 
07:00	52.9	52.9	52.9	80	46.9	0	3	248	0.00	30.231 
07:05	52.9	52.9	52.9	81	47.2	0	2	248	0.00	30.231 
07:10	52.9	52.9	52.9	81	47.2	1	3	292	0.00	30.231 
07:15	52.9	52.9	52.9	82	47.6	0	2	248	0.00	30.233 
07:20	52.9	52.9	52.9	82	47.6	0	2	248	0.00	30.233 
07:25	52.8	52.8	52.8	83	47.8	0	2	248	0.00	30.233 
07:30	52.8	52.8	52.8	83	47.8	0	1	248	0.00	30.244 
07:35	52.6	52.6	52.6	84	47.9	0	1	248	0.00	30.244 
07:40	52.6	52.6	52.6	84	47.9	0	0	---	0.00	30.244 
07:45	52.6	52.6	52.6	84	47.9	0	1	248	0.00	30.242 
07:50	52.5	52.5	52.5	84	47.8	0	3	248	0.00	30.242 
07:55	52.5	52.5	52.5	85	48.1	0	2	248	0.00	30.242 
08:00	52.2	52.2	52.2	86	48.1	0	3	248	0.00	30.244 
08:05	52.0	52.0	52.0	87	48.3	0	2	248	0.00	30.244 
08:10	51.9	51.9	51.9	87	48.2	0	2	248	0.00	30.244 
08:15	51.9	51.9	51.9	88	48.5	0	1	248	0.00	30.248 
08:20	51.7	51.7	51.7	89	48.6	0	2	248	0.00	30.248 
08:25	51.7	51.7	51.7	89	48.6	0	2	248	0.00	30.248 
08:30	51.7	51.7	51.7	90	48.9	0	1	248	0.01	30.250 
08:35	51.7	51.7	51.7	90	48.9	0	1	248	0.00	30.250 
08:40	51.7	51.7	51.7	91	49.2	0	3	248	0.00	30.250 
08:45	51.7	51.7	51.7	91	49.2	0	1	248	0.00	30.251 
08:50	51.7	51.7	51.7	91	49.2	0	2	248	0.00	30.251 
08:55	51.9	51.9	51.9	92	49.6	0	1	248	0.00	30.251 
09:00	51.9	51.9	51.9	92	49.6	0	3	248	0.00	30.250 
09:05	51.9	51.9	51.9	92	49.6	0	1	248	0.00	30.250 
09:10	52.0	52.0	52.0	92	49.7	0	4	248	0.00	30.250 
09:15	52.2	52.2	52.2	92	49.9	0	1	248	0.00	30.250 
09:20	52.2	52.2	52.2	92	49.9	1	4	248	0.00	30.250 
09:25	52.2	52.2	52.2	93	50.2	0	3	248	0.00	30.250 
09:30	52.3	52.3	52.3	93	50.3	0	2	248	0.00	30.251 
09:35	52.3	52.3	52.3	93	50.3	0	1	248	0.00	30.251 
09:40	52.3	52.3	52.3	93	50.3	0	2	248	0.01	30.251 
09:45	52.5	52.5	52.5	93	50.5	0	2	248	0.00	30.250 
09:50	52.5	52.5	52.5	93	50.5	1	3	248	0.00	30.250 
09:55	52.6	52.6	52.6	93	50.6	0	2	248	0.00	30.250 
10:00	52.6	52.6	52.6	93	50.6	0	1	248	0.00	30.254 
10:05	52.6	52.6	52.6	93	50.6	0	1	248	0.00	30.254 
10:10	52.8	52.8	52.8	93	50.8	0	2	248	0.00	30.254 
10:15	52.8	52.8	52.8	93	50.8	0	4	248	0.00	30.254 
10:20	52.8	52.8	52.8	93	50.8	1	4	248	0.00	30.254 
10:25	52.8	52.8	52.8	93	50.8	0	3	248	0.00	30.254 
10:30	52.9	52.9	52.9	93	50.9	0	1	292	0.00	30.251 
10:35	52.9	52.9	52.9	93	50.9	0	1	292	0.00	30.251 
10:40	52.9	52.9	52.9	93	50.9	1	4	292	0.00	30.251 
10:45	52.9	52.9	52.9	93	50.9	0	3	248	0.00	30.252 
10:50	52.9	52.9	52.9	93	50.9	0	2	248	0.00	30.252 
10:55	52.9	52.9	52.9	93	50.9	1	3	248	0.00	30.252 
11:00	52.9	52.9	52.9	92	50.6	0	2	248	0.00	30.256 
11:05	53.1	53.1	53.1	92	50.8	0	2	248	0.00	30.256 
11:10	53.2	53.2	53.2	92	50.9	0	2	248	0.00	30.256 
11:15	53.3	53.3	53.3	92	51.0	0	2	248	0.00	30.250 
11:20	53.5	53.5	53.5	92	51.2	1	3	68	0.00	30.250 
11:25	53.5	53.5	53.5	92	51.2	0	3	225	0.00	30.250 
11:30	53.6	53.6	53.6	92	51.3	0	2	225	0.00	30.249 
11:35	53.8	53.8	53.8	92	51.5	0	2	225	0.00	30.249 
11:40	53.8	53.8	53.8	92	51.5	0	2	225	0.00	30.249 
11:45	53.8	53.8	53.8	92	51.5	0	1	225	0.00	30.247 
11:50	53.9	53.9	53.9	92	51.6	0	2	225	0.00	30.247 
11:55	53.9	53.9	53.9	92	51.6	0	1	225	0.00	30.247 
12:00	53.9	53.9	53.9	92	51.6	1	3	225	0.00	30.243 
12:05	53.9	53.9	53.9	92	51.6	1	3	225	0.00	30.243 
12:10	53.9	53.9	53.9	92	51.6	0	3	248	0.00	30.243 
12:15	54.1	54.1	54.1	91	51.5	0	2	248	0.00	30.239 
12:20	54.1	54.1	54.1	91	51.5	0	1	248	0.00	30.239 
12:25	54.1	54.1	54.1	91	51.5	0	2	248	0.00	30.239 
12:30	54.1	54.1	54.1	91	51.5	0	2	248	0.00	30.233 
12:35	54.2	54.2	54.2	91	51.6	0	1	248	0.00	30.233 
12:40	54.2	54.2	54.2	91	51.6	0	2	248	0.00	30.233 
12:45	54.2	54.2	54.2	91	51.6	0	3	248	0.00	30.229 
12:50	54.2	54.2	54.2	91	51.6	0	3	248	0.00	30.229 
12:55	54.4	54.4	54.4	91	51.8	0	1	248	0.00	30.229 
13:00	54.4	54.4	54.4	91	51.8	0	2	248	0.00	30.219 
13:05	54.5	54.5	54.5	91	51.9	0	1	248	0.00	30.219 
13:10	54.5	54.5	54.5	91	51.9	0	2	248	0.00	30.219 
13:15	54.5	54.5	54.5	91	51.9	0	1	248	0.00	30.216 
13:20	54.5	54.5	54.5	91	51.9	0	2	248	0.00	30.216 
13:25	54.5	54.5	54.5	91	51.9	0	2	248	0.00	30.216 
13:30	54.5	54.5	54.5	91	51.9	0	2	248	0.00	30.215 
13:35	54.7	54.7	54.7	91	52.1	0	2	248	0.00	30.215 
13:40	54.7	54.7	54.7	91	52.1	0	2	248	0.00	30.215 
13:45	54.7	54.7	54.7	91	52.1	0	3	248	0.00	30.211 
13:50	54.7	54.7	54.7	91	52.1	0	1	248	0.00	30.211 
13:55	54.8	54.8	54.8	91	52.2	0	2	248	0.00	30.211 
14:00	54.8	54.8	54.8	91	52.2	0	2	248	0.00	30.213 
14:05	54.8	54.8	54.8	91	52.2	0	2	248	0.00	30.213 
14:10	54.8	54.8	54.8	91	52.2	0	2	248	0.00	30.213 
14:15	55.0	55.0	55.0	91	52.4	0	2	248	0.00	30.210 
14:20	55.0	55.0	55.0	91	52.4	0	4	248	0.00	30.210 
14:25	55.0	55.0	55.0	91	52.4	0	2	248	0.00	30.210 
14:30	55.0	55.0	55.0	91	52.4	0	0	---	0.00	30.205 
14:35	55.0	55.0	55.0	91	52.4	0	0	---	0.00	30.205 
14:40	55.0	55.0	55.0	91	52.4	0	1	248	0.00	30.205 
14:45	55.0	55.0	55.0	91	52.4	0	0	---	0.00	30.202 
14:50	55.0	55.0	55.0	92	52.7	0	0	---	0.00	30.202 
14:55	55.0	55.0	55.0	92	52.7	0	0	---	0.00	30.202 
15:00	55.1	55.1	55.1	92	52.8	0	0	---	0.00	30.199 
15:05	55.1	55.1	55.1	92	52.8	0	0	---	0.00	30.199 
15:10	55.1	55.1	55.1	92	52.8	0	0	---	0.00	30.199 
15:15	55.1	55.1	55.1	92	52.8	0	0	---	0.00	30.202 
15:20	55.1	55.1	55.1	92	52.8	0	0	---	0.00	30.202 
15:25	55.1	55.1	55.1	92	52.8	0	0	---	0.00	30.202 
15:30	55.0	55.0	55.0	92	52.7	0	1	248	0.00	30.205 
15:35	55.0	55.0	55.0	92	52.7	0	1	248	0.00	30.205 
15:40	54.8	54.8	54.8	93	52.8	0	1	248	0.00	30.205 
15:45	54.8	54.8	54.8	93	52.8	0	1	248	0.01	30.203 
15:50	54.8	54.8	54.8	93	52.8	0	1	248	0.00	30.203 
15:55	54.8	54.8	54.8	93	52.8	0	0	---	0.00	30.203 
16:00	54.8	54.8	54.8	93	52.8	0	0	---	0.00	30.205 
16:05	54.8	54.8	54.8	93	52.8	0	1	248	0.00	30.205 
16:10	54.8	54.8	54.8	93	52.8	0	1	248	0.00	30.205 
16:15	54.8	54.8	54.8	93	52.8	0	0	---	0.00	30.202 
16:20	54.8	54.8	54.8	93	52.8	0	0	---	0.01	30.202 
16:25	54.8	54.8	54.8	94	53.1	0	0	---	0.00	30.202 
16:30	54.8	54.8	54.8	94	53.1	0	1	248	0.01	30.200 
16:35	54.8	54.8	54.8	94	53.1	0	1	248	0.01	30.200 
16:40	54.7	54.7	54.7	94	53.0	0	0	---	0.00	30.200 
16:45	54.7	54.7	54.7	94	53.0	0	0	---	0.00	30.203 
16:50	54.7	54.7	54.7	94	53.0	0	0	---	0.01	30.203 
16:55	54.7	54.7	54.7	94	53.0	0	0	---	0.00	30.203 
17:00	54.7	54.7	54.7	94	53.0	0	0	---	0.01	30.201 
17:05	54.7	54.7	54.7	94	53.0	0	0	---	0.00	30.201 
17:10	54.7	54.7	54.7	94	53.0	0	1	248	0.01	30.201 
17:15	54.7	54.7	54.7	94	53.0	0	1	248	0.00	30.193 
17:20	54.7	54.7	54.7	94	53.0	0	1	248	0.01	30.193 
17:25	54.7	54.7	54.7	94	53.0	0	1	248	0.00	30.193 
17:30	54.7	54.7	54.7	95	53.3	0	1	248	0.00	30.194 
17:35	54.7	54.7	54.7	95	53.3	0	0	---	0.00	30.194 
17:40	54.5	54.5	54.5	95	53.1	0	0	---	0.00	30.194 
17:45	54.5	54.5	54.5	95	53.1	0	0	---	0.00	30.199 
17:50	54.4	54.4	54.4	95	53.0	0	1	248	0.00	30.199 
17:55	54.4	54.4	54.4	95	53.0	0	0	---	0.00	30.199 
18:00	54.4	54.4	54.4	95	53.0	0	0	---	0.00	30.198 
18:05	54.4	54.4	54.4	95	53.0	0	0	---	0.00	30.198 
18:10	54.2	54.2	54.2	95	52.8	0	0	---	0.00	30.198 
18:15	54.2	54.2	54.2	95	52.8	0	0	---	0.00	30.202 
18:20	54.2	54.2	54.2	95	52.8	0	0	---	0.00	30.202 
18:25	54.1	54.1	54.1	95	52.7	0	0	---	0.00	30.202 
18:30	54.1	54.1	54.1	95	52.7	0	0	---	0.00	30.204 
18:35	54.1	54.1	54.1	95	52.7	0	0	---	0.00	30.204 
18:40	54.2	54.2	54.2	95	52.8	0	0	---	0.00	30.204 
18:45	54.2	54.2	54.2	95	52.8	0	0	---	0.00	30.204 
18:50	54.2	54.2	54.2	95	52.8	0	0	---	0.00	30.204 
18:55	54.2	54.2	54.2	95	52.8	0	0	---	0.00	30.204 
19:00	54.2	54.2	54.2	95	52.8	0	0	---	0.00	30.203 
19:05	54.1	54.1	54.1	95	52.7	0	0	---	0.00	30.203 
19:10	54.1	54.1	54.1	95	52.7	0	0	---	0.01	30.203 
19:15	54.1	54.1	54.1	95	52.7	0	0	---	0.00	30.205 
19:20	54.1	54.1	54.1	95	52.7	0	0	---	0.00	30.205 
19:25	54.1	54.1	54.1	95	52.7	0	0	---	0.00	30.205 
19:30	54.1	54.1	54.1	95	52.7	0	0	---	0.00	30.205 
19:35	54.1	54.1	54.1	95	52.7	0	0	---	0.00	30.205 
19:40	54.1	54.1	54.1	95	52.7	0	0	---	0.00	30.205 
19:45	54.1	54.1	54.1	96	53.0	0	0	---	0.00	30.207 
19:50	54.1	54.1	54.1	96	53.0	0	0	---	0.00	30.207 
19:55	54.1	54.1	54.1	96	53.0	0	0	---	0.01	30.207 
20:00	54.1	54.1	54.1	96	53.0	0	0	---	0.00	30.210 
20:05	54.1	54.1	54.1	96	53.0	0	0	---	0.01	30.210 
20:10	54.1	54.1	54.1	96	53.0	0	0	---	0.01	30.210 
20:15	54.1	54.1	54.1	96	53.0	0	0	---	0.00	30.211 
20:20	54.1	54.1	54.1	96	53.0	0	0	---	0.00	30.211 
20:25	54.1	54.1	54.1	96	53.0	0	0	---	0.00	30.211 
20:30	54.1	54.1	54.1	96	53.0	0	0	---	0.00	30.208 
20:35	53.9	53.9	53.9	96	52.8	0	0	---	0.00	30.208 
20:40	53.9	53.9	53.9	96	52.8	0	0	---	0.00	30.208 
20:45	53.9	53.9	53.9	96	52.8	0	0	---	0.00	30.211 
20:50	53.9	53.9	53.9	96	52.8	0	0	---	0.00	30.211 
20:55	53.9	53.9	53.9	96	52.8	0	0	---	0.00	30.211 
21:00	53.9	53.9	53.9	96	52.8	0	0	---	0.00	30.208 
21:05	53.9	53.9	53.9	96	52.8	0	0	---	0.00	30.208 
21:10	53.9	53.9	53.9	96	52.8	0	0	---	0.00	30.208 
21:15	53.9	53.9	53.9	96	52.8	0	0	---	0.00	30.214 
21:20	53.9	53.9	53.9	96	52.8	0	0	---	0.00	30.214 
21:25	53.9	53.9	53.9	96	52.8	0	0	---	0.00	30.214 
21:30	53.8	53.8	53.8	96	52.7	0	0	---	0.00	30.214 
21:35	53.8	53.8	53.8	96	52.7	0	0	---	0.01	30.214 
21:40	53.8	53.8	53.8	96	52.7	0	0	---	0.00	30.214 
21:45	53.8	53.8	53.8	96	52.7	0	0	---	0.00	30.212 
21:50	53.8	53.8	53.8	96	52.7	0	0	---	0.00	30.212 
21:55	53.8	53.8	53.8	96	52.7	0	0	---	0.00	30.212 
22:00	53.8	53.8	53.8	96	52.7	0	0	---	0.01	30.210 
22:05	53.8	53.8	53.8	96	52.7	0	0	---	0.00	30.210 
22:10	53.6	53.6	53.6	96	52.5	0	0	---	0.00	30.210 
22:15	53.8	53.8	53.8	96	52.7	0	0	---	0.01	30.209 
22:20	53.8	53.8	53.8	96	52.7	0	0	---	0.00	30.209 
22:25	53.8	53.8	53.8	96	52.7	0	0	---	0.01	30.209 
22:30	53.8	53.8	53.8	96	52.7	0	0	---	0.00	30.205 
22:35	53.8	53.8	53.8	96	52.7	0	0	---	0.00	30.205 
22:40	53.8	53.8	53.8	96	52.7	0	0	---	0.00	30.205 
22:45	53.8	53.8	53.8	96	52.7	0	0	---	0.00	30.204 
22:50	53.8	53.8	53.8	96	52.7	0	2	248	0.00	30.204 
22:55	53.6	53.6	53.6	96	52.5	0	1	248	0.00	30.204 
23:00	53.6	53.6	53.6	96	52.5	0	0	---	0.00	30.202 
23:05	53.6	53.6	53.6	96	52.5	0	0	---	0.00	30.202 
23:10	53.5	53.5	53.5	96	52.4	0	0	---	0.00	30.202 
23:15	53.5	53.5	53.5	96	52.4	0	0	---	0.00	30.198 
23:20	53.5	53.5	53.5	96	52.4	0	0	---	0.00	30.198 
23:25	53.5	53.5	53.5	96	52.4	0	0	---	0.00	30.198 
23:30	53.3	53.3	53.3	96	52.2	0	0	---	0.00	30.198 
23:35	53.5	53.5	53.5	96	52.4	0	0	---	0.00	30.198 
23:40	53.5	53.5	53.5	96	52.4	0	0	---	0.00	30.198 
23:45	53.5	53.5	53.5	96	52.4	0	0	---	0.00	30.194 
23:50	53.5	53.5	53.5	96	52.4	0	0	---	0.00	30.194 
23:55	53.5	53.5	53.5	96	52.4	0	0	---	0.00	30.194 

CoCoRaHS
IN-AL-39
A2 Web Hosting
Creative Commons License
GoDaddy
search engine by freefind advanced

loaded 2018-11-17 22:25:20 • last modified 2010-11-18 10:43:29
Privacy PolicyDisclaimer
• wx.awcolley.com is powered by PmWiki v.2002016 •
• all content (unless otherwise noted) © 2018 A W Colley